Time;durP1;ratioP1;P1;durP2;ratioP2;P2;SDS_P1;SDS_P2;PMS_P1;PMS_P2;Temp;Humidity;BMP_temperature;BMP_pressure;BME280_temperature;BME280_humidity;BME280_pressure;Samples;Min_cycle;Max_cycle;Signal;HPM_P1;HPM_P2
2022/11/10 00:01:47;;;;;;;;;;;;;;;10.11;86.87;101644.28;5113873;28;19915;-60
2022/11/10 00:04:12;;;;;;;;;;;;;;;10.08;88.10;101650.34;5113660;28;19934;-60
2022/11/10 00:06:39;;;;;;;;;;;;;;;10.05;88.52;101642.34;5113568;28;19923;-60
2022/11/10 00:09:05;;;;;;;;;;;;;;;10.04;87.90;101633.53;5113746;28;20003;-60
2022/11/10 00:11:30;;;;;;;;;;;;;;;10.03;87.78;101644.97;5113832;28;19966;-59
2022/11/10 00:19:23;;;;;;;;;;;;;;;9.98;88.81;101648.34;5114147;28;19960;-60
2022/11/10 00:21:48;;;;;;;;;;;;;;;9.99;87.60;101645.72;5113547;28;19916;-61
2022/11/10 00:24:14;;;;;;;;;;;;;;;9.99;87.52;101643.09;5113377;28;20356;-61
2022/11/10 00:26:39;;;;;;;;;;;;;;;9.96;88.38;101650.94;5113624;28;20308;-60
2022/11/10 00:29:04;;;;;;;;;;;;;;;9.95;87.67;101646.50;5113514;28;19916;-61
2022/11/10 00:31:29;;;;;;;;;;;;;;;9.93;88.01;101647.31;5113632;28;19969;-60
2022/11/10 00:33:55;;;;;;;;;;;;;;;9.98;87.96;101653.63;5113540;28;20421;-59
2022/11/10 00:36:20;;;;;;;;;;;;;;;9.92;88.24;101661.38;5113457;28;19930;-60
2022/11/10 00:38:48;;;;;;;;;;;;;;;9.89;88.63;101667.47;5113440;28;19922;-60
2022/11/10 00:41:14;;;;;;;;;;;;;;;9.91;87.58;101675.44;5113379;28;19977;-60
2022/11/10 00:43:39;;;;;;;;;;;;;;;9.88;89.02;101681.50;5113497;28;20276;-60
2022/11/10 00:46:04;;;;;;;;;;;;;;;9.87;89.23;101670.91;5113137;28;19927;-60
2022/11/10 00:48:29;;;;;;;;;;;;;;;9.84;89.62;101679.63;5113507;28;19926;-60
2022/11/10 00:50:55;;;;;;;;;;;;;;;9.83;88.58;101677.84;5113389;28;19924;-59
2022/11/10 00:53:20;;;;;;;;;;;;;;;9.85;88.98;101683.16;5113169;28;20300;-60
2022/11/10 00:55:46;;;;;;;;;;;;;;;9.83;89.00;101691.06;5095036;28;20357;-60
2022/11/10 00:58:11;;;;;;;;;;;;;;;9.86;87.76;101687.63;5113390;28;20474;-59
2022/11/10 01:00:36;;;;;;;;;;;;;;;9.83;88.81;101677.84;5113281;28;20343;-61
2022/11/10 01:03:02;;;;;;;;;;;;;;;9.81;89.49;101670.72;5113365;28;19969;-59
2022/11/10 01:05:28;;;;;;;;;;;;;;;9.79;89.12;101684.78;5113298;28;19912;-60
2022/11/10 01:07:53;;;;;;;;;;;;;;;9.78;88.73;101687.41;5116094;28;20002;-60
2022/11/10 01:10:18;;;;;;;;;;;;;;;9.77;89.25;101682.97;5116943;28;19947;-59
2022/11/10 01:12:43;;;;;;;;;;;;;;;9.74;89.71;101680.25;5117014;28;20376;-60
2022/11/10 01:15:09;;;;;;;;;;;;;;;9.77;88.76;101697.06;5116754;28;19923;-60
2022/11/10 01:17:34;;;;;;;;;;;;;;;9.73;88.51;101695.19;5117007;28;19925;-60
2022/11/10 01:19:59;;;;;;;;;;;;;;;9.69;90.65;101695.97;5116837;28;20381;-60
2022/11/10 01:22:25;;;;;;;;;;;;;;;9.66;91.26;101695.88;5116616;28;19920;-60
2022/11/10 01:24:50;;;;;;;;;;;;;;;9.64;91.14;101704.59;5116697;28;19965;-60
2022/11/10 01:27:15;;;;;;;;;;;;;;;9.63;91.42;101719.53;5116606;28;19912;-59
2022/11/10 01:29:40;;;;;;;;;;;;;;;9.62;91.24;101715.09;5116628;28;19958;-61
2022/11/10 01:32:06;;;;;;;;;;;;;;;9.62;91.21;101724.75;5098196;28;19938;-60
2022/11/10 01:34:31;;;;;;;;;;;;;;;9.63;90.77;101721.25;5116469;28;19950;-60
2022/11/10 01:36:56;;;;;;;;;;;;;;;9.61;90.96;101726.50;5116341;28;20418;-60
2022/11/10 01:39:21;;;;;;;;;;;;;;;9.61;90.79;101725.63;5116404;28;19972;-60
2022/11/10 01:41:47;;;;;;;;;;;;;;;9.61;90.20;101733.53;5116331;28;20372;-61
2022/11/10 01:44:17;;;;;;;;;;;;;;;9.61;89.87;101728.25;5116394;28;19916;-61
2022/11/10 01:46:42;;;;;;;;;;;;;;;9.63;89.67;101724.78;5116065;28;19920;-61
2022/11/10 01:49:08;;;;;;;;;;;;;;;9.59;91.20;101719.38;5116239;28;20294;-61
2022/11/10 01:51:48;;;;;;;;;;;;;;;9.61;91.26;101730.91;5116066;28;19911;-61
2022/11/10 01:54:17;;;;;;;;;;;;;;;9.59;91.69;101722.91;5097959;28;20325;-60
2022/11/10 01:56:44;;;;;;;;;;;;;;;9.57;91.38;101727.28;5115919;28;19937;-60
2022/11/10 01:59:13;;;;;;;;;;;;;;;9.54;91.40;101727.16;5115887;28;19915;-60
2022/11/10 02:01:38;;;;;;;;;;;;;;;9.56;91.28;101721.97;5116148;28;19912;-61
2022/11/10 02:04:06;;;;;;;;;;;;;;;9.52;92.06;101724.50;5115978;28;20053;-60
2022/11/10 02:06:36;;;;;;;;;;;;;;;9.52;90.82;101724.50;5115790;28;19922;-60
2022/11/10 02:09:01;;;;;;;;;;;;;;;9.53;91.81;101722.75;5116028;28;20296;-61
2022/11/10 02:11:28;;;;;;;;;;;;;;;9.53;91.54;101725.38;5115814;28;19912;-60
2022/11/10 02:13:53;;;;;;;;;;;;;;;9.53;91.06;101725.38;5115650;28;19916;-60
2022/11/10 02:16:20;;;;;;;;;;;;;;;9.53;92.02;101725.38;5097389;28;19912;-61
2022/11/10 02:18:45;;;;;;;;;;;;;;;9.53;92.25;101730.66;5114915;28;19912;-60
2022/11/10 02:21:10;;;;;;;;;;;;;;;9.52;91.28;101729.78;5115643;28;19923;-60
2022/11/10 02:23:35;;;;;;;;;;;;;;;9.52;91.72;101735.06;5115376;28;19998;-61
2022/11/10 02:26:02;;;;;;;;;;;;;;;9.51;90.94;101741.19;5115688;28;19915;-61
2022/11/10 02:28:27;;;;;;;;;;;;;;;9.52;90.59;101742.97;5115696;28;19964;-60
2022/11/10 02:30:53;;;;;;;;;;;;;;;9.52;91.30;101745.59;5115493;28;19916;-60
2022/11/10 02:33:18;;;;;;;;;;;;;;;9.53;91.69;101752.66;5115287;28;19920;-61
2022/11/10 02:35:44;;;;;;;;;;;;;;;9.53;91.49;101757.94;5115274;28;19919;-60
2022/11/10 02:38:09;;;;;;;;;;;;;;;9.54;90.48;101779.94;5115210;28;19916;-60
2022/11/10 02:40:35;;;;;;;;;;;;;;;9.55;90.49;101776.47;5115397;28;20351;-60
2022/11/10 02:43:01;;;;;;;;;;;;;;;9.56;90.45;101786.19;5115046;28;19912;-60
2022/11/10 02:45:26;;;;;;;;;;;;;;;9.56;90.24;101786.19;5115115;28;19984;-60
2022/11/10 02:47:51;;;;;;;;;;;;;;;9.56;90.81;101782.66;5115115;28;20364;-60
2022/11/10 02:50:17;;;;;;;;;;;;;;;9.53;91.50;101778.16;5115392;28;20002;-60
2022/11/10 02:52:42;;;;;;;;;;;;;;;9.49;91.64;101777.16;5115010;28;20360;-60
2022/11/10 02:55:07;;;;;;;;;;;;;;;9.47;91.28;101785.91;5114980;28;19919;-60
2022/11/10 02:57:33;;;;;;;;;;;;;;;9.47;91.38;101776.25;5096500;28;19915;-60
2022/11/10 02:59:58;;;;;;;;;;;;;;;9.46;91.05;101777.09;5114756;28;19923;-60
2022/11/10 03:02:23;;;;;;;;;;;;;;;9.42;91.71;101775.22;5114733;28;19915;-60
2022/11/10 03:04:48;;;;;;;;;;;;;;;9.41;92.13;101783.06;5114984;28;19911;-61
2022/11/10 03:07:14;;;;;;;;;;;;;;;9.38;92.75;101780.31;5114681;28;19916;-60
2022/11/10 03:09:39;;;;;;;;;;;;;;;9.37;92.14;101789.09;5114646;28;20007;-61
2022/11/10 03:12:04;;;;;;;;;;;;;;;9.35;91.85;101786.41;5114648;28;20300;-60
2022/11/10 03:14:30;;;;;;;;;;;;;;;9.32;92.38;101796.88;5114725;28;20015;-60
2022/11/10 03:16:55;;;;;;;;;;;;;;;9.31;92.14;101787.16;5114451;28;20028;-60
2022/11/10 03:19:20;;;;;;;;;;;;;;;9.30;91.65;101790.66;5114388;28;20388;-60
2022/11/10 03:21:45;;;;;;;;;;;;;;;9.27;93.11;101794.09;5114395;28;20006;-60
2022/11/10 03:24:10;;;;;;;;;;;;;;;9.28;91.96;101805.53;5114192;28;19916;-60
2022/11/10 03:26:36;;;;;;;;;;;;;;;9.25;92.09;101805.44;5114363;28;19915;-60
2022/11/10 03:29:01;;;;;;;;;;;;;;;9.23;91.94;101808.03;5095956;28;20020;-60
2022/11/10 03:31:26;;;;;;;;;;;;;;;9.22;91.92;101816.78;5113321;28;19930;-60
2022/11/10 03:33:51;;;;;;;;;;;;;;;9.23;91.26;101815.03;5114136;28;19916;-61
2022/11/10 03:36:17;;;;;;;;;;;;;;;9.20;92.90;101830.75;5114207;28;19923;-60
2022/11/10 03:38:42;;;;;;;;;;;;;;;9.19;92.25;101824.59;5114071;28;20415;-60
2022/11/10 03:41:07;;;;;;;;;;;;;;;9.15;93.44;101837.63;5114084;28;19930;-60
2022/11/10 03:43:32;;;;;;;;;;;;;;;9.11;93.21;101844.53;5114068;28;20007;-60
2022/11/10 03:45:58;;;;;;;;;;;;;;;9.11;92.23;101838.38;5114030;28;19915;-61
2022/11/10 03:48:23;;;;;;;;;;;;;;;9.09;92.96;101840.09;5113986;28;20319;-60
2022/11/10 03:50:48;;;;;;;;;;;;;;;9.08;92.31;101846.19;5114018;28;19920;-60
2022/11/10 03:53:13;;;;;;;;;;;;;;;9.08;93.10;101859.34;5095487;28;19918;-61
2022/11/10 03:55:39;;;;;;;;;;;;;;;9.06;92.69;101855.78;5113881;28;19915;-60
2022/11/10 03:58:04;;;;;;;;;;;;;;;9.05;92.63;101854.00;5113814;28;19912;-60
2022/11/10 04:00:29;;;;;;;;;;;;;;;9.05;92.14;101857.53;5113812;28;19916;-61
2022/11/10 04:02:54;;;;;;;;;;;;;;;9.02;93.02;101853.03;5113804;28;19918;-61
2022/11/10 04:10:54;;;;;;;;;;;;;;;8.97;93.63;101862.53;5113994;28;19964;-61
2022/11/10 04:16:03;;;;;;;;;;;;;;;8.94;93.25;101870.34;5114036;28;19961;-60
2022/11/10 04:18:28;;;;;;;;;;;;;;;8.92;93.47;101879.94;5113705;28;19966;-60
2022/11/10 04:20:58;;;;;;;;;;;;;;;8.92;92.21;101885.22;5113546;28;19915;-68
2022/11/10 04:23:27;;;;;;;;;;;;;;;8.90;92.54;101886.91;5113438;28;19916;-60
2022/11/10 04:28:37;;;;;;;;;;;;;;;8.84;93.82;101891.97;5113573;28;19919;-60
2022/11/10 04:31:02;;;;;;;;;;;;;;;8.84;93.31;101894.59;5113648;28;19915;-60
2022/11/10 04:33:27;;;;;;;;;;;;;;;8.85;94.14;101908.69;5113497;28;19964;-60
2022/11/10 04:35:53;;;;;;;;;;;;;;;8.84;93.44;101907.78;5113568;28;19957;-60
2022/11/10 04:38:18;;;;;;;;;;;;;;;8.84;93.64;101909.53;5113683;28;19918;-61
2022/11/10 04:40:43;;;;;;;;;;;;;;;8.82;93.72;101917.34;5095564;28;20388;-60
2022/11/10 04:43:08;;;;;;;;;;;;;;;8.81;94.23;101919.94;5116911;28;20283;-61
2022/11/10 04:45:34;;;;;;;;;;;;;;;8.80;94.35;101929.59;5117451;28;20025;-60
2022/11/10 04:47:59;;;;;;;;;;;;;;;8.80;94.40;101933.97;5117443;28;20016;-61
2022/11/10 04:50:24;;;;;;;;;;;;;;;8.81;94.37;101941.94;5117421;28;19916;-61
2022/11/10 04:52:49;;;;;;;;;;;;;;;8.80;93.64;101937.50;5117176;28;19915;-61
2022/11/10 04:55:15;;;;;;;;;;;;;;;8.78;94.35;101942.75;5117281;28;19922;-61
2022/11/10 04:57:41;;;;;;;;;;;;;;;8.78;94.15;101947.13;5117172;28;19911;-60
2022/11/10 05:00:06;;;;;;;;;;;;;;;8.78;93.90;101944.47;5117178;28;20006;-60
2022/11/10 05:02:32;;;;;;;;;;;;;;;8.80;94.33;101947.16;5117046;28;19959;-60
2022/11/10 05:04:57;;;;;;;;;;;;;;;8.81;93.07;101947.19;5117119;28;19923;-60
2022/11/10 05:07:22;;;;;;;;;;;;;;;8.80;93.10;101948.06;5117002;28;19912;-60
2022/11/10 05:09:48;;;;;;;;;;;;;;;8.77;94.22;101954.09;5116963;28;19960;-60
2022/11/10 05:12:13;;;;;;;;;;;;;;;8.75;94.11;101953.16;5117028;28;19916;-60
2022/11/10 05:14:38;;;;;;;;;;;;;;;8.76;94.31;101960.22;5117026;28;20369;-61
2022/11/10 05:17:03;;;;;;;;;;;;;;;8.76;94.40;101952.31;5116730;28;19923;-60
2022/11/10 05:19:28;;;;;;;;;;;;;;;8.75;94.51;101954.91;5116862;28;20016;-61
2022/11/10 05:21:54;;;;;;;;;;;;;;;8.74;94.93;101961.03;5116970;28;20257;-61
2022/11/10 05:24:19;;;;;;;;;;;;;;;8.72;95.12;101966.22;5116549;28;19947;-61
2022/11/10 05:26:44;;;;;;;;;;;;;;;8.70;95.52;101957.38;5116650;28;20300;-60
2022/11/10 05:29:10;;;;;;;;;;;;;;;8.67;95.17;101965.16;5116668;28;19961;-60
2022/11/10 05:31:35;;;;;;;;;;;;;;;8.68;95.99;101972.22;5116619;28;19915;-61
2022/11/10 05:34:00;;;;;;;;;;;;;;;8.68;95.95;101964.31;5116640;28;19986;-60
2022/11/10 05:36:25;;;;;;;;;;;;;;;8.68;95.90;101961.66;5116425;28;19916;-60
2022/11/10 05:38:51;;;;;;;;;;;;;;;8.70;94.77;101954.75;5116466;28;19995;-60
2022/11/10 05:41:16;;;;;;;;;;;;;;;8.70;95.93;101957.38;5116354;28;19951;-60
2022/11/10 05:43:41;;;;;;;;;;;;;;;8.69;96.42;101955.59;5116277;28;19919;-61
2022/11/10 05:46:06;;;;;;;;;;;;;;;8.69;96.37;101965.19;5115989;28;19970;-60
2022/11/10 05:48:32;;;;;;;;;;;;;;;8.68;96.56;101976.59;5116548;28;20292;-61
2022/11/10 05:50:57;;;;;;;;;;;;;;;8.70;96.37;101980.19;5116059;28;20372;-60
2022/11/10 05:53:22;;;;;;;;;;;;;;;8.68;96.53;101982.75;5114846;28;19930;-60
2022/11/10 05:55:47;;;;;;;;;;;;;;;8.70;96.68;101985.47;5116092;28;19916;-60
2022/11/10 05:58:13;;;;;;;;;;;;;;;8.68;96.02;101990.66;5097705;28;20019;-60
2022/11/10 06:00:38;;;;;;;;;;;;;;;8.69;97.09;101986.28;5116081;28;19916;-61
2022/11/10 06:03:05;;;;;;;;;;;;;;;8.67;96.25;101991.50;5115992;28;20330;-60
2022/11/10 06:05:31;;;;;;;;;;;;;;;8.67;96.25;102001.16;5115871;28;20254;-60
2022/11/10 06:07:57;;;;;;;;;;;;;;;8.66;96.71;102005.53;5116127;28;19964;-61
2022/11/10 06:10:22;;;;;;;;;;;;;;;8.64;95.98;102004.56;5115795;28;19919;-61
2022/11/10 06:12:47;;;;;;;;;;;;;;;8.63;96.68;102012.41;5115783;28;19985;-61
2022/11/10 06:15:14;;;;;;;;;;;;;;;8.64;95.74;102014.19;5115606;28;19923;-60
2022/11/10 06:17:39;;;;;;;;;;;;;;;8.62;96.52;102022.06;5115850;28;19918;-61
2022/11/10 06:20:05;;;;;;;;;;;;;;;8.61;95.61;102009.75;5115701;28;20321;-61
2022/11/10 06:22:30;;;;;;;;;;;;;;;8.62;95.79;102013.25;5115546;28;19911;-60
2022/11/10 06:24:56;;;;;;;;;;;;;;;8.62;96.62;102015.91;5115530;28;19926;-61
2022/11/10 06:27:21;;;;;;;;;;;;;;;8.60;97.05;102022.84;5115418;28;20368;-60
2022/11/10 06:29:46;;;;;;;;;;;;;;;8.60;96.53;102020.19;5115189;28;20023;-60
2022/11/10 06:32:11;;;;;;;;;;;;;;;8.57;97.38;102022.75;5115577;28;20407;-60
2022/11/10 06:34:37;;;;;;;;;;;;;;;8.56;97.59;102023.56;5115322;28;19916;-63
2022/11/10 06:37:02;;;;;;;;;;;;;;;8.53;97.59;102037.53;5115410;28;19915;-61
2022/11/10 06:39:27;;;;;;;;;;;;;;;8.51;97.29;102047.09;5115331;28;19922;-61
2022/11/10 06:41:52;;;;;;;;;;;;;;;8.48;97.94;102050.53;5115205;28;19965;-61
2022/11/10 06:44:18;;;;;;;;;;;;;;;8.47;97.60;102047.81;5112695;28;19916;-60
2022/11/10 06:46:43;;;;;;;;;;;;;;;8.47;97.62;102063.63;5094558;28;20391;-60
2022/11/10 06:49:08;;;;;;;;;;;;;;;8.46;97.75;102068.00;5076606;28;19965;-61
2022/11/10 06:51:33;;;;;;;;;;;;;;;8.45;97.76;102062.66;5094752;28;19924;-60
2022/11/10 06:53:59;;;;;;;;;;;;;;;8.44;98.54;102080.22;5094461;28;19958;-61
2022/11/10 06:56:24;;;;;;;;;;;;;;;8.42;98.84;102075.72;5094821;28;19919;-60
2022/11/10 06:58:49;;;;;;;;;;;;;;;8.41;99.14;102084.47;5076358;28;19969;-61
2022/11/10 07:01:14;;;;;;;;;;;;;;;8.43;98.77;102085.41;5094522;28;19923;-61
2022/11/10 07:03:40;;;;;;;;;;;;;;;8.42;98.97;102080.97;5094414;28;20384;-61
2022/11/10 07:06:05;;;;;;;;;;;;;;;8.42;99.12;102092.41;5094145;28;19958;-61
2022/11/10 07:08:30;;;;;;;;;;;;;;;8.45;99.38;102092.53;5094288;28;19916;-60
2022/11/10 07:10:56;;;;;;;;;;;;;;;8.47;98.54;102093.47;5094258;28;19912;-61
2022/11/10 07:13:21;;;;;;;;;;;;;;;8.48;98.79;102097.03;5094260;28;19916;-60
2022/11/10 07:15:47;;;;;;;;;;;;;;;8.49;98.92;102112.00;5094457;28;19912;-60
2022/11/10 07:18:12;;;;;;;;;;;;;;;8.53;98.82;102114.81;5094314;28;19916;-61
2022/11/10 07:20:38;;;;;;;;;;;;;;;8.55;98.57;102113.97;5094110;28;20377;-60
2022/11/10 07:23:05;;;;;;;;;;;;;;;8.57;98.89;102117.59;5093849;28;20254;-61
2022/11/10 07:25:31;;;;;;;;;;;;;;;8.58;99.56;102125.53;5093896;28;19912;-61
2022/11/10 07:27:57;;;;;;;;;;;;;;;8.65;98.60;102129.28;5093836;28;19963;-60
2022/11/10 07:30:23;;;;;;;;;;;;;;;8.68;98.11;102145.22;5093719;28;19973;-61
2022/11/10 07:32:59;;;;;;;;;;;;;;;8.72;99.40;102139.25;5076111;28;19947;-61
2022/11/10 07:35:24;;;;;;;;;;;;;;;8.80;99.29;102142.19;5093944;28;19999;-61
2022/11/10 07:37:49;;;;;;;;;;;;;;;8.86;99.30;102151.22;5093754;28;20027;-61
2022/11/10 07:40:14;;;;;;;;;;;;;;;8.92;98.46;102153.19;5093776;28;20007;-60
2022/11/10 07:42:40;;;;;;;;;;;;;;;8.99;98.15;102155.22;5093797;28;19916;-60
2022/11/10 07:45:05;;;;;;;;;;;;;;;9.07;98.39;102147.59;5093560;28;20318;-62
2022/11/10 07:47:31;;;;;;;;;;;;;;;9.16;98.58;102142.66;5093316;28;20394;-61
2022/11/10 07:49:56;;;;;;;;;;;;;;;9.28;97.57;102145.75;5093564;28;19980;-61
2022/11/10 07:52:21;;;;;;;;;;;;;;;9.34;97.55;102142.47;5093543;28;20374;-61
2022/11/10 07:54:46;;;;;;;;;;;;;;;9.42;97.50;102149.81;5093410;28;19919;-62
2022/11/10 07:57:12;;;;;;;;;;;;;;;9.54;97.22;102146.72;5093408;28;19922;-61
2022/11/10 07:59:37;;;;;;;;;;;;;;;9.69;96.96;102147.25;5093318;28;19955;-60
2022/11/10 08:02:02;;;;;;;;;;;;;;;9.86;95.92;102157.53;5093420;28;19923;-60
2022/11/10 08:04:27;;;;;;;;;;;;;;;9.99;94.83;102168.56;5093393;28;20371;-61
2022/11/10 08:06:53;;;;;;;;;;;;;;;10.14;94.78;102162.88;5093272;28;19959;-60
2022/11/10 08:09:18;;;;;;;;;;;;;;;10.32;94.15;102160.00;5093544;28;20002;-61
2022/11/10 08:11:44;;;;;;;;;;;;;;;10.51;93.14;102174.69;5093593;28;19919;-61
2022/11/10 08:14:09;;;;;;;;;;;;;;;10.70;92.53;102178.81;5093249;28;19922;-61
2022/11/10 08:16:34;;;;;;;;;;;;;;;10.95;91.31;102191.94;5093974;28;19916;-61
2022/11/10 08:18:59;;;;;;;;;;;;;;;11.22;89.88;102197.19;5097581;28;19916;-61
2022/11/10 08:21:25;;;;;;;;;;;;;;;11.49;88.47;102205.03;5097592;28;20300;-61
2022/11/10 08:23:50;;;;;;;;;;;;;;;11.72;87.42;102199.50;5097586;28;19919;-62
2022/11/10 08:26:16;;;;;;;;;;;;;;;11.92;85.83;102186.84;5097475;28;19916;-61
2022/11/10 08:28:43;;;;;;;;;;;;;;;12.12;84.28;102195.28;5097530;28;19963;-61
2022/11/10 08:31:08;;;;;;;;;;;;;;;12.20;82.95;102204.34;5097470;28;20411;-61
2022/11/10 08:33:34;;;;;;;;;;;;;;;12.28;82.93;102200.13;5097633;28;19971;-61
2022/11/10 08:35:59;;;;;;;;;;;;;;;12.37;83.19;102207.41;5097126;28;20284;-61
2022/11/10 08:38:25;;;;;;;;;;;;;;;12.44;82.66;102199.66;5097107;28;20020;-61
2022/11/10 08:40:59;;;;;;;;;;;;;;;12.49;83.34;102205.97;5096297;28;19992;-61
2022/11/10 08:43:25;;;;;;;;;;;;;;;12.63;82.79;102197.44;5105915;28;20037;-60
2022/11/10 08:45:52;;;;;;;;;;;;;;;12.87;81.88;102202.44;5096586;28;20349;-60
2022/11/10 08:48:19;;;;;;;;;;;;;;;13.12;80.02;102210.09;5096853;28;20261;-62
2022/11/10 08:50:45;;;;;;;;;;;;;;;13.28;80.90;102200.75;5096853;28;19919;-61
2022/11/10 08:53:14;;;;;;;;;;;;;;;13.48;81.04;102203.81;5096473;28;19920;-61
2022/11/10 08:55:40;;;;;;;;;;;;;;;13.58;78.02;102211.13;5096701;28;19912;-61
2022/11/10 08:58:05;;;;;;;;;;;;;;;13.68;77.48;102217.50;5096651;28;20002;-60
2022/11/10 09:00:31;;;;;;;;;;;;;;;13.83;78.75;102217.78;5096458;28;19955;-61
2022/11/10 09:03:08;;;;;;;;;;;;;;;14.10;77.12;102220.09;5096742;28;19923;-63
2022/11/10 09:05:34;;;;;;;;;;;;;;;14.28;74.63;102223.06;5096785;28;19915;-63
2022/11/10 09:08:00;;;;;;;;;;;;;;;14.31;74.74;102235.53;5088035;28;20010;-63
2022/11/10 09:10:25;;;;;;;;;;;;;;;14.53;75.72;102240.38;5116860;28;20351;-62
2022/11/10 09:12:50;;;;;;;;;;;;;;;14.64;74.04;102232.56;5098546;28;19976;-63
2022/11/10 09:17:20;;;;;;;12.60;3.20;;;;;;;14.72;71.75;102240.66;5151915;27;20409;-63
2022/11/10 09:19:46;;;;;;;15.30;3.53;;;;;;;14.69;71.08;102253.94;5151867;27;20066;-63
2022/11/10 09:22:11;;;;;;;15.40;3.63;;;;;;;14.49;72.23;102243.84;5151898;27;20494;-64
2022/11/10 09:24:37;;;;;;;17.45;3.42;;;;;;;14.47;72.49;102247.31;5151797;27;20062;-63
2022/11/10 09:27:02;;;;;;;14.82;3.70;;;;;;;14.48;72.54;102244.72;5151857;27;20042;-63
2022/11/10 09:29:27;;;;;;;15.98;3.45;;;;;;;14.41;72.29;102241.91;5151743;27;20019;-63
2022/11/10 09:31:53;;;;;;;18.38;3.72;;;;;;;14.62;72.78;102239.63;5151628;27;20030;-63
2022/11/10 09:34:18;;;;;;;14.93;3.90;;;;;;;14.57;72.27;102243.09;5151990;27;20054;-62
2022/11/10 09:36:43;;;;;;;18.23;4.03;;;;;;;14.62;72.42;102246.72;5151550;27;20476;-65
2022/11/10 09:39:09;;;;;;;13.70;3.53;;;;;;;14.67;71.33;102248.59;5151620;27;20059;-66
2022/11/10 09:41:39;;;;;;;14.98;3.60;;;;;;;14.78;71.74;102246.09;5151499;27;20020;-64
2022/11/10 09:44:17;;;;;;;11.18;3.45;;;;;;;14.82;71.94;102239.03;5151609;27;20030;-64
2022/11/10 09:46:48;;;;;;;21.85;3.92;;;;;;;14.86;70.98;102254.19;5151505;27;20034;-64
2022/11/10 09:49:23;;;;;;;15.43;3.60;;;;;;;15.06;71.39;102254.50;5151455;27;20023;-62
2022/11/10 09:51:52;;;;;;;15.57;3.58;;;;;;;15.19;69.80;102261.78;5151568;27;20015;-62
2022/11/10 09:54:35;;;;;;;17.63;3.40;;;;;;;15.27;70.28;102262.81;5150758;27;20023;-63
2022/11/10 09:57:03;;;;;;;13.55;3.50;;;;;;;15.43;69.39;102259.47;5134610;27;20029;-63
2022/11/10 09:59:31;;;;;;;17.10;3.42;;;;;;;15.44;68.93;102258.59;5132514;27;20061;-62
2022/11/10 10:02:08;;;;;;;17.58;3.60;;;;;;;15.56;68.42;102255.22;5151097;27;20023;-62
2022/11/10 10:04:55;;;;;;;15.30;3.30;;;;;;;15.72;69.52;102246.56;5151077;27;20073;-62
2022/11/10 10:07:55;;;;;;;12.88;3.63;;;;;;;15.85;68.74;102250.28;5150958;27;20026;-63
2022/11/10 10:10:45;;;;;;;16.10;3.67;;;;;;;15.85;68.25;102254.72;5138372;27;20064;-62
2022/11/10 10:13:38;;;;;;;14.05;3.75;;;;;;;16.08;68.37;102260.28;5111096;28;20071;-63
2022/11/10 10:16:30;;;;;;;14.05;3.30;;;;;;;16.12;66.93;102268.34;5129951;28;20493;-63
2022/11/10 10:18:56;;;;;;;13.75;3.38;;;;;;;16.13;66.35;102267.44;5130298;28;20047;-62
2022/11/10 10:21:48;;;;;;;13.90;3.40;;;;;;;16.20;66.94;102276.44;5129830;28;20496;-63
2022/11/10 10:24:15;;;;;;;;;;;;;;;16.20;66.52;102271.97;5130502;28;20042;-63
2022/11/10 10:26:46;;;;;;;14.27;3.50;;;;;;;16.29;66.53;102271.19;5127773;28;19911;-63
2022/11/10 10:29:20;;;;;;;12.05;3.25;;;;;;;16.36;64.88;102290.78;5116318;28;20455;-62
2022/11/10 10:31:48;;;;;;;13.73;3.05;;;;;;;16.47;64.83;102284.69;5116217;28;20105;-64
2022/11/10 10:34:17;;;;;;;13.10;3.30;;;;;;;16.58;64.42;102291.91;5115832;28;20487;-62
2022/11/10 10:36:44;;;;;;;17.08;3.85;;;;;;;16.62;64.30;102299.06;5097798;28;20422;-63
2022/11/10 10:39:16;;;;;;;12.02;3.20;;;;;;;16.52;63.93;102298.97;5116088;28;20028;-63
2022/11/10 10:41:45;;;;;;;17.00;3.28;;;;;;;16.51;63.87;102304.28;5116363;28;20023;-64
2022/11/10 10:44:13;;;;;;;14.70;3.53;;;;;;;16.74;64.24;102316.13;5115884;28;20481;-63
2022/11/10 10:46:50;;;;;;;9.35;3.00;;;;;;;16.90;64.21;102327.81;5115922;28;20046;-62
2022/11/10 10:49:22;;;;;;;12.88;3.10;;;;;;;17.16;62.86;102321.78;5115961;28;20094;-62
2022/11/10 10:51:49;;;;;;;14.70;3.17;;;;;;;17.38;62.06;102322.81;5115849;28;20026;-63
2022/11/10 10:54:29;;;;;;;10.43;3.10;;;;;;;17.37;62.02;102324.59;5115712;28;20078;-63
2022/11/10 10:57:03;;;;;;;14.70;3.28;;;;;;;17.36;61.65;102332.63;5115716;28;20031;-63
2022/11/10 10:59:28;;;;;;;12.68;3.15;;;;;;;17.20;61.35;102320.91;5115827;28;20035;-62
2022/11/10 11:01:54;;;;;;;9.98;2.92;;;;;;;17.31;61.85;102329.03;5115659;28;20027;-63
2022/11/10 11:04:26;;;;;;;18.23;3.58;;;;;;;17.29;61.88;102320.97;5115884;28;20012;-63
2022/11/10 11:06:57;;;;;;;16.23;3.92;;;;;;;17.66;62.02;102314.06;5115645;28;20055;-63
2022/11/10 11:09:28;;;;;;;10.43;3.15;;;;;;;17.77;60.84;102315.06;5115489;28;20078;-63
2022/11/10 11:12:02;;;;;;;14.52;3.17;;;;;;;18.05;60.19;102320.50;5115576;28;20026;-63
2022/11/10 11:14:30;;;;;;;11.07;3.20;;;;;;;18.06;59.33;102308.03;5115666;28;20016;-63
2022/11/10 11:16:55;;;;;;;12.23;3.00;;;;;;;18.05;57.90;102307.13;5115101;28;20527;-62
2022/11/10 11:19:29;;;;;;;9.77;3.05;;;;;;;18.08;58.21;102317.84;5115412;28;20051;-62
2022/11/10 11:22:00;;;;;;;12.70;3.13;;;;;;;18.20;57.71;102319.66;5115589;28;20039;-63
2022/11/10 11:24:38;;;;;;;13.10;2.80;;;;;;;18.19;57.57;102317.88;5115112;28;20088;-62
2022/11/10 11:27:16;;;;;;;10.63;2.83;;;;;;;18.32;57.85;102316.13;5115453;28;20020;-63
2022/11/10 11:29:45;;;;;;;10.70;2.80;;;;;;;18.33;56.50;102313.47;5115434;28;20035;-62
2022/11/10 11:32:32;;;;;;;10.25;3.00;;;;;;;18.20;56.95;102303.59;5115421;28;20087;-63
2022/11/10 11:35:34;;;;;;;12.00;2.70;;;;;;;18.15;56.96;102319.63;5115299;28;20153;-63
2022/11/10 11:38:14;;;;;;;12.38;2.70;;;;;;;18.09;57.12;102327.66;5114934;28;20027;-62
2022/11/10 11:40:50;;;;;;;11.40;3.08;;;;;;;18.23;56.75;102339.28;5114388;28;20030;-62
2022/11/10 11:43:15;;;;;;;10.45;3.00;;;;;;;18.22;56.59;102345.53;5114971;28;20019;-63
2022/11/10 11:46:15;;;;;;;9.70;3.10;;;;;;;18.31;57.50;102342.00;5114772;28;20077;-62
2022/11/10 11:48:50;;;;;;;10.70;3.10;;;;;;;18.01;56.03;102354.38;5114828;28;20039;-63
2022/11/10 11:51:24;;;;;;;11.10;2.72;;;;;;;17.86;56.85;102357.00;5114980;28;20042;-63
2022/11/10 11:54:14;;;;;;;9.88;3.22;;;;;;;17.60;56.84;102343.47;5096259;28;20481;-62
2022/11/10 11:56:42;;;;;;;11.23;2.80;;;;;;;17.48;57.02;102351.41;5114553;28;20110;-63
2022/11/10 11:59:13;;;;;;;8.73;2.83;;;;;;;17.38;56.89;102360.22;5114642;28;20055;-63
2022/11/10 12:01:47;;;;;;;12.27;2.50;;;;;;;17.30;58.04;102364.63;5114791;28;20035;-63
2022/11/10 12:04:54;;;;;;;13.60;3.05;;;;;;;17.38;58.66;102365.56;5114514;28;20061;-62
2022/11/10 12:08:01;;;;;;;11.52;2.92;;;;;;;17.45;58.27;102373.66;5114336;28;20028;-63
2022/11/10 12:10:41;;;;;;;11.90;2.90;;;;;;;17.63;58.05;102388.91;5114293;28;20468;-63
2022/11/10 12:13:17;;;;;;;10.60;3.03;;;;;;;17.74;58.32;102389.03;5096085;28;20031;-63
2022/11/10 12:16:00;;;;;;;10.80;2.80;;;;;;;17.80;57.80;102380.13;5113703;28;20054;-63
2022/11/10 12:18:33;;;;;;;11.15;3.08;;;;;;;18.02;57.14;102377.56;5114099;28;20023;-62
2022/11/10 12:21:24;;;;;;;8.38;2.78;;;;;;;18.25;56.47;102368.75;5114106;28;20016;-62
2022/11/10 12:24:09;;;;;;;13.85;2.80;;;;;;;18.34;56.63;102383.94;5109703;28;20036;-62
2022/11/10 12:26:40;;;;;;;12.13;3.00;;;;;;;18.10;56.01;102382.06;5114072;28;20019;-61
2022/11/10 12:29:38;;;;;;;9.70;3.13;;;;;;;18.07;56.98;102379.34;5114078;28;20027;-61
2022/11/10 12:32:13;;;;;;;11.32;3.10;;;;;;;17.99;55.75;102392.72;5086031;28;20108;-61
2022/11/10 12:35:05;;;;;;;13.73;2.88;;;;;;;18.09;56.04;102377.59;5114032;28;20055;-63
2022/11/10 12:37:37;;;;;;;10.45;2.92;;;;;;;18.04;56.05;102376.69;5098376;28;20039;-63
2022/11/10 12:40:20;;;;;;;16.43;3.47;;;;;;;18.01;56.33;102386.47;5095411;28;20478;-62
2022/11/10 12:42:57;;;;;;;13.55;2.85;;;;;;;18.07;56.14;102376.69;5113749;28;20027;-62
2022/11/10 12:45:27;;;;;;;10.63;2.85;;;;;;;18.11;55.98;102373.13;5113767;28;20468;-62